sensor_id;sensor_type;location;lat;lon;timestamp;pressure;altitude;pressure_sealevel;temperature;humidity
10176;BME280;18221;38.704;0.152;2023-04-01T00:05:21;98879.19;;;25.69;24.77
10176;BME280;18221;38.704;0.152;2023-04-01T00:07:50;98884.97;;;25.38;25.65
10176;BME280;18221;38.704;0.152;2023-04-01T00:10:19;98880.47;;;25.32;25.64
10176;BME280;18221;38.704;0.152;2023-04-01T00:12:47;98859.31;;;25.34;25.36
10176;BME280;18221;38.704;0.152;2023-04-01T00:15:18;98894.91;;;25.56;25.39
10176;BME280;18221;38.704;0.152;2023-04-01T00:17:46;98888.28;;;25.40;25.55
10176;BME280;18221;38.704;0.152;2023-04-01T00:20:15;98874.84;;;25.10;25.76
10176;BME280;18221;38.704;0.152;2023-04-01T00:22:45;98893.50;;;25.42;25.41
10176;BME280;18221;38.704;0.152;2023-04-01T00:25:14;98884.88;;;25.10;25.96
10176;BME280;18221;38.704;0.152;2023-04-01T00:27:43;98882.84;;;25.17;25.93
10176;BME280;18221;38.704;0.152;2023-04-01T00:30:12;98879.56;;;25.15;26.21
10176;BME280;18221;38.704;0.152;2023-04-01T00:32:40;98884.97;;;25.27;26.08
10176;BME280;18221;38.704;0.152;2023-04-01T00:35:10;98888.06;;;25.07;26.13
10176;BME280;18221;38.704;0.152;2023-04-01T00:37:39;98901.53;;;25.02;26.21
10176;BME280;18221;38.704;0.152;2023-04-01T00:40:26;98883.81;;;24.99;26.52
10176;BME280;18221;38.704;0.152;2023-04-01T00:42:55;98894.44;;;24.89;26.90
10176;BME280;18221;38.704;0.152;2023-04-01T00:45:31;98888.41;;;24.99;26.70
10176;BME280;18221;38.704;0.152;2023-04-01T00:48:07;98889.44;;;24.98;26.79
10176;BME280;18221;38.704;0.152;2023-04-01T00:50:39;98900.00;;;25.17;26.39
10176;BME280;18221;38.704;0.152;2023-04-01T00:53:09;98897.38;;;25.34;26.45
10176;BME280;18221;38.704;0.152;2023-04-01T00:55:45;98892.06;;;25.28;26.47
10176;BME280;18221;38.704;0.152;2023-04-01T00:58:21;98894.56;;;25.17;26.62
10176;BME280;18221;38.704;0.152;2023-04-01T01:00:52;98886.75;;;25.09;26.62
10176;BME280;18221;38.704;0.152;2023-04-01T01:03:21;98899.16;;;25.17;26.60
10176;BME280;18221;38.704;0.152;2023-04-01T01:06:12;98880.13;;;24.94;26.90
10176;BME280;18221;38.704;0.152;2023-04-01T01:09:07;98874.78;;;24.87;26.91
10176;BME280;18221;38.704;0.152;2023-04-01T01:11:45;98898.44;;;24.98;26.72
10176;BME280;18221;38.704;0.152;2023-04-01T01:14:37;98880.94;;;24.83;27.11
10176;BME280;18221;38.704;0.152;2023-04-01T01:17:17;98861.03;;;24.59;27.20
10176;BME280;18221;38.704;0.152;2023-04-01T01:20:19;98882.47;;;24.79;26.75
10176;BME280;18221;38.704;0.152;2023-04-01T01:26:43;98887.09;;;24.48;27.15
10176;BME280;18221;38.704;0.152;2023-04-01T01:29:37;98879.00;;;24.72;27.29
10176;BME280;18221;38.704;0.152;2023-04-01T01:32:25;98857.13;;;24.67;27.00
10176;BME280;18221;38.704;0.152;2023-04-01T01:35:16;98870.72;;;24.25;27.64
10176;BME280;18221;38.704;0.152;2023-04-01T01:37:51;98861.03;;;24.59;27.23
10176;BME280;18221;38.704;0.152;2023-04-01T01:40:21;98859.25;;;24.53;27.11
10176;BME280;18221;38.704;0.152;2023-04-01T01:42:59;98866.91;;;24.56;27.31
10176;BME280;18221;38.704;0.152;2023-04-01T01:45:33;98853.97;;;24.70;26.83
10176;BME280;18221;38.704;0.152;2023-04-01T01:48:06;98859.97;;;24.60;27.13
10176;BME280;18221;38.704;0.152;2023-04-01T01:50:41;98851.34;;;24.51;26.95
10176;BME280;18221;38.704;0.152;2023-04-01T01:53:13;98845.06;;;24.39;27.30
10176;BME280;18221;38.704;0.152;2023-04-01T01:55:44;98856.06;;;24.44;27.04
10176;BME280;18221;38.704;0.152;2023-04-01T01:58:18;98849.16;;;24.30;27.34
10176;BME280;18221;38.704;0.152;2023-04-01T02:00:54;98842.56;;;24.38;27.07
10176;BME280;18221;38.704;0.152;2023-04-01T02:03:25;98845.13;;;24.21;27.32
10176;BME280;18221;38.704;0.152;2023-04-01T02:06:01;98840.47;;;24.10;27.47
10176;BME280;18221;38.704;0.152;2023-04-01T02:08:37;98849.47;;;23.92;27.58
10176;BME280;18221;38.704;0.152;2023-04-01T02:11:11;98847.72;;;24.16;27.34
10176;BME280;18221;38.704;0.152;2023-04-01T02:13:47;98837.97;;;24.38;27.01
10176;BME280;18221;38.704;0.152;2023-04-01T02:16:25;98834.72;;;24.18;26.77
10176;BME280;18221;38.704;0.152;2023-04-01T02:18:58;98857.50;;;23.99;27.19
10176;BME280;18221;38.704;0.152;2023-04-01T02:21:33;98852.81;;;24.24;27.14
10176;BME280;18221;38.704;0.152;2023-04-01T02:24:08;98857.59;;;24.11;27.08
10176;BME280;18221;38.704;0.152;2023-04-01T02:26:41;98861.19;;;24.05;26.77
10176;BME280;18221;38.704;0.152;2023-04-01T02:29:12;98833.56;;;24.14;26.75
10176;BME280;18221;38.704;0.152;2023-04-01T02:31:42;98860.34;;;24.22;26.84
10176;BME280;18221;38.704;0.152;2023-04-01T02:34:11;98823.88;;;24.18;26.44
10176;BME280;18221;38.704;0.152;2023-04-01T02:36:42;98822.75;;;24.08;26.67
10176;BME280;18221;38.704;0.152;2023-04-01T02:39:10;98856.63;;;24.35;26.34
10176;BME280;18221;38.704;0.152;2023-04-01T02:41:44;98846.91;;;24.27;26.10
10176;BME280;18221;38.704;0.152;2023-04-01T02:44:14;98843.59;;;24.25;25.85
10176;BME280;18221;38.704;0.152;2023-04-01T02:46:43;98856.75;;;24.10;26.05
10176;BME280;18221;38.704;0.152;2023-04-01T02:49:12;98871.88;;;24.18;25.89
10176;BME280;18221;38.704;0.152;2023-04-01T02:51:41;98883.31;;;24.20;26.19
10176;BME280;18221;38.704;0.152;2023-04-01T02:54:09;98870.72;;;24.25;25.81
10176;BME280;18221;38.704;0.152;2023-04-01T02:56:38;98892.16;;;24.15;25.93
10176;BME280;18221;38.704;0.152;2023-04-01T02:59:06;98888.88;;;24.25;25.78
10176;BME280;18221;38.704;0.152;2023-04-01T03:01:34;98887.47;;;24.04;25.98
10176;BME280;18221;38.704;0.152;2023-04-01T03:04:06;98903.75;;;24.04;26.17
10176;BME280;18221;38.704;0.152;2023-04-01T03:06:34;98909.16;;;24.22;25.86
10176;BME280;18221;38.704;0.152;2023-04-01T03:09:07;98910.94;;;24.17;25.80
10176;BME280;18221;38.704;0.152;2023-04-01T03:11:35;98907.34;;;24.34;25.67
10176;BME280;18221;38.704;0.152;2023-04-01T03:14:04;98908.91;;;24.12;25.77
10176;BME280;18221;38.704;0.152;2023-04-01T03:16:33;98907.72;;;24.08;26.18
10176;BME280;18221;38.704;0.152;2023-04-01T03:19:01;98914.56;;;24.11;25.89
10176;BME280;18221;38.704;0.152;2023-04-01T03:21:30;98925.69;;;24.21;26.03
10176;BME280;18221;38.704;0.152;2023-04-01T03:23:58;98925.59;;;24.27;25.53
10176;BME280;18221;38.704;0.152;2023-04-01T03:26:29;98926.03;;;24.42;25.61
10176;BME280;18221;38.704;0.152;2023-04-01T03:28:57;98924.84;;;24.02;25.96
10176;BME280;18221;38.704;0.152;2023-04-01T03:31:25;98935.13;;;24.00;26.03
10176;BME280;18221;38.704;0.152;2023-04-01T03:33:54;98945.84;;;24.13;26.11
10176;BME280;18221;38.704;0.152;2023-04-01T03:36:23;98952.97;;;24.26;25.63
10176;BME280;18221;38.704;0.152;2023-04-01T03:38:52;98958.75;;;24.47;25.50
10176;BME280;18221;38.704;0.152;2023-04-01T03:41:20;98952.97;;;24.26;25.73
10176;BME280;18221;38.704;0.152;2023-04-01T03:43:50;98968.22;;;24.09;25.96
10176;BME280;18221;38.704;0.152;2023-04-01T03:46:20;98966.50;;;24.14;25.82
10176;BME280;18221;38.704;0.152;2023-04-01T03:48:48;98959.22;;;24.26;25.47
10176;BME280;18221;38.704;0.152;2023-04-01T03:51:17;98963.91;;;24.01;25.79
10176;BME280;18221;38.704;0.152;2023-04-01T03:53:45;98953.94;;;23.95;26.35
10176;BME280;18221;38.704;0.152;2023-04-01T03:56:14;98952.72;;;23.91;26.02
10176;BME280;18221;38.704;0.152;2023-04-01T03:58:43;98947.66;;;24.19;25.80
10176;BME280;18221;38.704;0.152;2023-04-01T04:01:18;98948.44;;;24.02;25.79
10176;BME280;18221;38.704;0.152;2023-04-01T04:03:49;98957.41;;;24.20;25.65
10176;BME280;18221;38.704;0.152;2023-04-01T04:06:19;98965.09;;;24.23;25.90
10176;BME280;18221;38.704;0.152;2023-04-01T04:08:48;98954.00;;;24.25;25.91
10176;BME280;18221;38.704;0.152;2023-04-01T04:11:18;98972.88;;;24.20;26.03
10176;BME280;18221;38.704;0.152;2023-04-01T04:13:47;98969.50;;;24.24;25.75
10176;BME280;18221;38.704;0.152;2023-04-01T04:16:18;98987.72;;;24.17;26.02
10176;BME280;18221;38.704;0.152;2023-04-01T04:18:46;98989.50;;;24.05;25.94
10176;BME280;18221;38.704;0.152;2023-04-01T04:21:15;98991.41;;;24.23;25.97
10176;BME280;18221;38.704;0.152;2023-04-01T04:23:44;99005.66;;;24.36;25.60
10176;BME280;18221;38.704;0.152;2023-04-01T04:26:15;99006.66;;;24.53;25.38
10176;BME280;18221;38.704;0.152;2023-04-01T04:28:44;99022.91;;;24.72;25.30
10176;BME280;18221;38.704;0.152;2023-04-01T04:31:13;99030.78;;;24.80;25.29
10176;BME280;18221;38.704;0.152;2023-04-01T04:33:47;99030.16;;;24.78;25.23
10176;BME280;18221;38.704;0.152;2023-04-01T04:36:15;99034.44;;;24.55;25.57
10176;BME280;18221;38.704;0.152;2023-04-01T04:38:44;99035.94;;;24.33;25.73
10176;BME280;18221;38.704;0.152;2023-04-01T04:41:13;99043.19;;;24.39;25.67
10176;BME280;18221;38.704;0.152;2023-04-01T04:43:50;99046.38;;;24.18;25.59
10176;BME280;18221;38.704;0.152;2023-04-01T04:46:20;99038.47;;;24.35;25.56
10176;BME280;18221;38.704;0.152;2023-04-01T04:48:50;99048.03;;;24.37;25.59
10176;BME280;18221;38.704;0.152;2023-04-01T04:51:20;99047.94;;;24.44;25.59
10176;BME280;18221;38.704;0.152;2023-04-01T04:53:49;99056.69;;;24.28;25.74
10176;BME280;18221;38.704;0.152;2023-04-01T04:56:19;99056.09;;;24.26;25.75
10176;BME280;18221;38.704;0.152;2023-04-01T04:58:50;99062.75;;;24.30;25.94
10176;BME280;18221;38.704;0.152;2023-04-01T05:01:19;99064.63;;;24.29;25.89
10176;BME280;18221;38.704;0.152;2023-04-01T05:03:49;99063.53;;;24.30;25.66
10176;BME280;18221;38.704;0.152;2023-04-01T05:06:20;99068.84;;;24.01;26.33
10176;BME280;18221;38.704;0.152;2023-04-01T05:08:48;99064.97;;;23.72;26.39
10176;BME280;18221;38.704;0.152;2023-04-01T05:11:19;99062.97;;;23.85;26.43
10176;BME280;18221;38.704;0.152;2023-04-01T05:13:48;99067.56;;;23.85;26.31
10176;BME280;18221;38.704;0.152;2023-04-01T05:16:19;99077.66;;;23.96;26.04
10176;BME280;18221;38.704;0.152;2023-04-01T05:18:49;99075.56;;;23.98;26.14
10176;BME280;18221;38.704;0.152;2023-04-01T05:21:17;99077.94;;;24.13;25.83
10176;BME280;18221;38.704;0.152;2023-04-01T05:23:46;99085.88;;;24.14;25.71
10176;BME280;18221;38.704;0.152;2023-04-01T05:26:15;99083.75;;;24.34;25.76
10176;BME280;18221;38.704;0.152;2023-04-01T05:28:44;99095.44;;;24.35;25.95
10176;BME280;18221;38.704;0.152;2023-04-01T05:31:12;99087.50;;;24.33;26.28
10176;BME280;18221;38.704;0.152;2023-04-01T05:33:41;99083.16;;;24.32;26.64
10176;BME280;18221;38.704;0.152;2023-04-01T05:36:14;99091.50;;;24.31;26.78
10176;BME280;18221;38.704;0.152;2023-04-01T05:38:43;99099.13;;;24.22;27.04
10176;BME280;18221;38.704;0.152;2023-04-01T05:41:13;99101.78;;;24.04;27.61
10176;BME280;18221;38.704;0.152;2023-04-01T05:43:42;99115.22;;;23.74;27.62
10176;BME280;18221;38.704;0.152;2023-04-01T05:46:11;99106.66;;;23.71;27.87
10176;BME280;18221;38.704;0.152;2023-04-01T05:48:39;99116.84;;;23.75;27.70
10176;BME280;18221;38.704;0.152;2023-04-01T05:51:15;99119.84;;;23.92;27.89
10176;BME280;18221;38.704;0.152;2023-04-01T05:53:44;99129.81;;;23.98;28.40
10176;BME280;18221;38.704;0.152;2023-04-01T05:56:12;99125.44;;;23.72;29.48
10176;BME280;18221;38.704;0.152;2023-04-01T05:58:53;99138.16;;;23.72;29.55
10176;BME280;18221;38.704;0.152;2023-04-01T06:01:24;99147.25;;;23.59;29.07
10176;BME280;18221;38.704;0.152;2023-04-01T06:03:57;99151.22;;;23.57;28.70
10176;BME280;18221;38.704;0.152;2023-04-01T06:06:30;99142.94;;;23.45;29.08
10176;BME280;18221;38.704;0.152;2023-04-01T06:09:12;99143.56;;;23.47;28.35
10176;BME280;18221;38.704;0.152;2023-04-01T06:12:16;99156.28;;;23.47;29.39
10176;BME280;18221;38.704;0.152;2023-04-01T06:15:01;99154.06;;;23.30;28.81
10176;BME280;18221;38.704;0.152;2023-04-01T06:17:50;99161.56;;;23.28;28.51
10176;BME280;18221;38.704;0.152;2023-04-01T06:20:30;99173.91;;;23.24;28.36
10176;BME280;18221;38.704;0.152;2023-04-01T06:23:37;99180.28;;;23.43;29.57
10176;BME280;18221;38.704;0.152;2023-04-01T06:26:29;99176.59;;;23.24;30.66
10176;BME280;18221;38.704;0.152;2023-04-01T06:29:35;99181.41;;;23.22;31.24
10176;BME280;18221;38.704;0.152;2023-04-01T06:32:27;99190.00;;;23.13;31.65
10176;BME280;18221;38.704;0.152;2023-04-01T06:35:31;99187.31;;;23.06;31.60
10176;BME280;18221;38.704;0.152;2023-04-01T06:41:50;99208.66;;;22.83;31.16
10176;BME280;18221;38.704;0.152;2023-04-01T06:44:34;99205.53;;;22.86;31.62
10176;BME280;18221;38.704;0.152;2023-04-01T06:47:26;99208.06;;;22.81;31.45
10176;BME280;18221;38.704;0.152;2023-04-01T06:50:07;99204.88;;;22.91;31.33
10176;BME280;18221;38.704;0.152;2023-04-01T06:52:52;99199.19;;;23.12;31.10
10176;BME280;18221;38.704;0.152;2023-04-01T06:55:32;99200.88;;;23.06;31.35
10176;BME280;18221;38.704;0.152;2023-04-01T06:58:10;99196.72;;;22.97;31.69
10176;BME280;18221;38.704;0.152;2023-04-01T07:00:46;99209.66;;;22.95;31.96
10176;BME280;18221;38.704;0.152;2023-04-01T07:03:23;99211.00;;;22.73;32.83
10176;BME280;18221;38.704;0.152;2023-04-01T07:06:00;99212.03;;;22.72;32.46
10176;BME280;18221;38.704;0.152;2023-04-01T07:08:35;99212.59;;;22.87;32.07
10176;BME280;18221;38.704;0.152;2023-04-01T07:11:09;99214.88;;;22.97;31.69
10176;BME280;18221;38.704;0.152;2023-04-01T07:13:47;99222.13;;;23.09;31.51
10176;BME280;18221;38.704;0.152;2023-04-01T07:16:25;99224.41;;;23.12;31.43
10176;BME280;18221;38.704;0.152;2023-04-01T07:19:02;99239.25;;;22.90;31.26
10176;BME280;18221;38.704;0.152;2023-04-01T07:21:36;99231.69;;;23.05;31.18
10176;BME280;18221;38.704;0.152;2023-04-01T07:24:16;99223.16;;;23.08;30.79
10176;BME280;18221;38.704;0.152;2023-04-01T07:26:54;99220.97;;;23.37;29.82
10176;BME280;18221;38.704;0.152;2023-04-01T07:29:25;99220.19;;;23.16;29.87
10176;BME280;18221;38.704;0.152;2023-04-01T07:32:25;99213.56;;;23.12;29.77
10176;BME280;18221;38.704;0.152;2023-04-01T07:35:17;99216.53;;;22.98;30.33
10176;BME280;18221;38.704;0.152;2023-04-01T07:38:09;99205.88;;;23.03;30.61
10176;BME280;18221;38.704;0.152;2023-04-01T07:40:48;99221.28;;;23.09;30.66
10176;BME280;18221;38.704;0.152;2023-04-01T07:43:46;99219.34;;;23.22;30.30
10176;BME280;18221;38.704;0.152;2023-04-01T07:49:22;99230.69;;;23.51;29.28
10176;BME280;18221;38.704;0.152;2023-04-01T07:52:02;99239.44;;;23.53;29.12
10176;BME280;18221;38.704;0.152;2023-04-01T07:54:42;99222.56;;;23.51;28.89
10176;BME280;18221;38.704;0.152;2023-04-01T07:57:19;99223.22;;;23.46;29.04
10176;BME280;18221;38.704;0.152;2023-04-01T08:00:01;99232.38;;;23.45;29.42
10176;BME280;18221;38.704;0.152;2023-04-01T08:02:53;99228.84;;;23.45;28.95
10176;BME280;18221;38.704;0.152;2023-04-01T08:05:28;99226.16;;;23.31;29.03
10176;BME280;18221;38.704;0.152;2023-04-01T08:08:08;99233.94;;;23.21;28.99
10176;BME280;18221;38.704;0.152;2023-04-01T08:10:48;99235.19;;;23.25;28.90
10176;BME280;18221;38.704;0.152;2023-04-01T08:13:31;99234.16;;;23.20;28.71
10176;BME280;18221;38.704;0.152;2023-04-01T08:16:18;99241.91;;;23.03;28.84
10176;BME280;18221;38.704;0.152;2023-04-01T08:19:02;99237.72;;;23.14;28.71
10176;BME280;18221;38.704;0.152;2023-04-01T08:21:42;99243.00;;;22.96;29.18
10176;BME280;18221;38.704;0.152;2023-04-01T08:24:26;99241.22;;;23.27;28.51
10176;BME280;18221;38.704;0.152;2023-04-01T08:27:00;99233.47;;;23.38;28.36
10176;BME280;18221;38.704;0.152;2023-04-01T08:29:41;99241.09;;;23.54;28.09
10176;BME280;18221;38.704;0.152;2023-04-01T08:32:18;99247.00;;;23.75;28.21
10176;BME280;18221;38.704;0.152;2023-04-01T08:35:00;99257.16;;;24.18;27.94
10176;BME280;18221;38.704;0.152;2023-04-01T08:37:35;99266.31;;;24.48;28.04
10176;BME280;18221;38.704;0.152;2023-04-01T08:43:55;99274.13;;;24.63;28.49
10176;BME280;18221;38.704;0.152;2023-04-01T08:50:17;99285.81;;;25.06;28.66
10176;BME280;18221;38.704;0.152;2023-04-01T08:53:00;99276.44;;;25.20;28.98
10176;BME280;18221;38.704;0.152;2023-04-01T08:56:01;99285.59;;;25.26;29.17
10176;BME280;18221;38.704;0.152;2023-04-01T09:02:00;99290.94;;;25.32;28.88
10176;BME280;18221;38.704;0.152;2023-04-01T09:07:46;99289.44;;;25.36;28.47
10176;BME280;18221;38.704;0.152;2023-04-01T09:10:56;99279.47;;;25.48;27.84
10176;BME280;18221;38.704;0.152;2023-04-01T09:14:03;99281.19;;;25.43;28.06
10176;BME280;18221;38.704;0.152;2023-04-01T09:17:01;99275.06;;;25.29;28.47
10176;BME280;18221;38.704;0.152;2023-04-01T09:19:53;99276.00;;;25.05;28.43
10176;BME280;18221;38.704;0.152;2023-04-01T09:22:47;99279.41;;;24.76;28.48
10176;BME280;18221;38.704;0.152;2023-04-01T09:25:48;99283.19;;;24.75;28.74
10176;BME280;18221;38.704;0.152;2023-04-01T09:28:20;99281.59;;;24.92;27.71
10176;BME280;18221;38.704;0.152;2023-04-01T09:31:21;99287.88;;;25.10;28.04
10176;BME280;18221;38.704;0.152;2023-04-01T09:37:34;99280.66;;;24.98;28.20
10176;BME280;18221;38.704;0.152;2023-04-01T09:40:17;99288.94;;;24.85;27.74
10176;BME280;18221;38.704;0.152;2023-04-01T09:43:21;99290.03;;;25.20;28.21
10176;BME280;18221;38.704;0.152;2023-04-01T09:46:19;99281.59;;;25.46;27.39
10176;BME280;18221;38.704;0.152;2023-04-01T09:49:37;99264.38;;;25.52;28.47
10176;BME280;18221;38.704;0.152;2023-04-01T09:52:24;99273.03;;;25.25;28.87
10176;BME280;18221;38.704;0.152;2023-04-01T09:55:27;99276.34;;;25.27;28.64
10176;BME280;18221;38.704;0.152;2023-04-01T09:58:48;99267.69;;;25.18;28.26
10176;BME280;18221;38.704;0.152;2023-04-01T10:02:06;99263.47;;;25.22;28.57
10176;BME280;18221;38.704;0.152;2023-04-01T10:05:29;99252.81;;;25.39;28.65
10176;BME280;18221;38.704;0.152;2023-04-01T10:08:41;99242.59;;;25.34;29.12
10176;BME280;18221;38.704;0.152;2023-04-01T10:12:33;99250.94;;;25.21;28.25
10176;BME280;18221;38.704;0.152;2023-04-01T10:22:21;99243.13;;;24.70;29.24
10176;BME280;18221;38.704;0.152;2023-04-01T10:25:45;99253.88;;;24.83;29.21
10176;BME280;18221;38.704;0.152;2023-04-01T10:28:53;99241.81;;;24.97;28.78
10176;BME280;18221;38.704;0.152;2023-04-01T10:32:12;99246.56;;;24.84;29.46
10176;BME280;18221;38.704;0.152;2023-04-01T10:35:14;99241.88;;;25.09;29.15
10176;BME280;18221;38.704;0.152;2023-04-01T10:38:20;99238.31;;;25.27;28.62
10176;BME280;18221;38.704;0.152;2023-04-01T10:48:23;99260.06;;;25.74;28.96
10176;BME280;18221;38.704;0.152;2023-04-01T10:51:20;99257.09;;;26.06;28.81
10176;BME280;18221;38.704;0.152;2023-04-01T10:54:18;99251.66;;;26.06;27.76
10176;BME280;18221;38.704;0.152;2023-04-01T10:57:02;99249.22;;;26.16;28.57
10176;BME280;18221;38.704;0.152;2023-04-01T11:00:28;99255.66;;;26.33;27.93
10176;BME280;18221;38.704;0.152;2023-04-01T11:03:46;99252.53;;;26.18;27.40
10176;BME280;18221;38.704;0.152;2023-04-01T11:07:15;99249.13;;;26.22;27.87
10176;BME280;18221;38.704;0.152;2023-04-01T11:13:51;99224.19;;;26.07;28.06
10176;BME280;18221;38.704;0.152;2023-04-01T11:20:32;99205.81;;;26.32;28.27
10176;BME280;18221;38.704;0.152;2023-04-01T11:23:38;99198.47;;;26.21;27.89
10176;BME280;18221;38.704;0.152;2023-04-01T11:26:26;99194.91;;;26.32;28.26
10176;BME280;18221;38.704;0.152;2023-04-01T11:29:25;99186.25;;;26.47;27.13
10176;BME280;18221;38.704;0.152;2023-04-01T11:32:14;99169.09;;;26.58;26.84
10176;BME280;18221;38.704;0.152;2023-04-01T11:35:12;99182.44;;;26.60;27.21
10176;BME280;18221;38.704;0.152;2023-04-01T11:37:58;99183.75;;;26.57;27.46
10176;BME280;18221;38.704;0.152;2023-04-01T11:40:37;99183.75;;;26.57;26.96
10176;BME280;18221;38.704;0.152;2023-04-01T11:43:16;99167.88;;;26.66;27.09
10176;BME280;18221;38.704;0.152;2023-04-01T11:45:58;99164.81;;;26.74;27.26
10176;BME280;18221;38.704;0.152;2023-04-01T11:48:58;99152.84;;;26.86;26.35
10176;BME280;18221;38.704;0.152;2023-04-01T11:51:58;99146.69;;;26.79;27.16
10176;BME280;18221;38.704;0.152;2023-04-01T11:55:08;99149.28;;;26.63;27.93
10176;BME280;18221;38.704;0.152;2023-04-01T11:58:23;99144.56;;;26.58;26.88
10176;BME280;18221;38.704;0.152;2023-04-01T12:01:30;99148.00;;;26.77;26.68
10176;BME280;18221;38.704;0.152;2023-04-01T12:04:35;99163.38;;;26.60;27.37
10176;BME280;18221;38.704;0.152;2023-04-01T12:07:20;99158.41;;;26.57;27.37
10176;BME280;18221;38.704;0.152;2023-04-01T12:10:01;99155.47;;;26.47;27.00
10176;BME280;18221;38.704;0.152;2023-04-01T12:12:38;99142.47;;;26.37;27.38
10176;BME280;18221;38.704;0.152;2023-04-01T12:15:23;99142.59;;;26.30;27.41
10176;BME280;18221;38.704;0.152;2023-04-01T12:18:10;99141.88;;;26.23;27.79
10176;BME280;18221;38.704;0.152;2023-04-01T12:20:50;99141.41;;;26.26;27.56
10176;BME280;18221;38.704;0.152;2023-04-01T12:23:56;99139.63;;;26.20;27.59
10176;BME280;18221;38.704;0.152;2023-04-01T12:26:47;99141.75;;;26.18;27.47
10176;BME280;18221;38.704;0.152;2023-04-01T12:29:51;99134.16;;;26.09;27.26
10176;BME280;18221;38.704;0.152;2023-04-01T12:32:34;99126.84;;;26.09;27.57
10176;BME280;18221;38.704;0.152;2023-04-01T12:35:20;99122.69;;;25.95;28.33
10176;BME280;18221;38.704;0.152;2023-04-01T12:38:07;99132.25;;;25.98;28.93
10176;BME280;18221;38.704;0.152;2023-04-01T12:44:26;99126.00;;;25.86;29.61
10176;BME280;18221;38.704;0.152;2023-04-01T12:47:31;99130.13;;;25.88;29.12
10176;BME280;18221;38.704;0.152;2023-04-01T12:50:31;99117.34;;;26.00;29.27
10176;BME280;18221;38.704;0.152;2023-04-01T12:53:46;99114.50;;;25.95;28.11
10176;BME280;18221;38.704;0.152;2023-04-01T12:56:31;99094.03;;;25.93;28.09
10176;BME280;18221;38.704;0.152;2023-04-01T12:59:32;99091.69;;;25.85;28.73
10176;BME280;18221;38.704;0.152;2023-04-01T13:02:20;99078.06;;;25.61;29.29
10176;BME280;18221;38.704;0.152;2023-04-01T13:05:20;99084.34;;;25.32;29.56
10176;BME280;18221;38.704;0.152;2023-04-01T13:08:15;99067.66;;;25.17;30.20
10176;BME280;18221;38.704;0.152;2023-04-01T13:11:07;99070.81;;;25.02;30.59
10176;BME280;18221;38.704;0.152;2023-04-01T13:16:52;99061.63;;;24.85;31.59
10176;BME280;18221;38.704;0.152;2023-04-01T13:19:31;99055.00;;;24.81;31.28
10176;BME280;18221;38.704;0.152;2023-04-01T13:22:12;99049.47;;;24.88;30.96
10176;BME280;18221;38.704;0.152;2023-04-01T13:24:52;99043.34;;;24.74;31.47
10176;BME280;18221;38.704;0.152;2023-04-01T13:27:34;99037.56;;;24.89;31.03
10176;BME280;18221;38.704;0.152;2023-04-01T13:30:24;99046.34;;;25.02;32.16
10176;BME280;18221;38.704;0.152;2023-04-01T13:33:01;99044.84;;;25.18;29.86
10176;BME280;18221;38.704;0.152;2023-04-01T13:35:43;99029.16;;;25.32;29.41
10176;BME280;18221;38.704;0.152;2023-04-01T13:38:43;99021.16;;;25.37;28.79
10176;BME280;18221;38.704;0.152;2023-04-01T13:41:31;99012.38;;;25.35;28.70
10176;BME280;18221;38.704;0.152;2023-04-01T13:44:12;99018.81;;;25.52;28.85
10176;BME280;18221;38.704;0.152;2023-04-01T13:47:15;99013.16;;;25.65;28.58
10176;BME280;18221;38.704;0.152;2023-04-01T13:50:13;99000.50;;;25.70;27.57
10176;BME280;18221;38.704;0.152;2023-04-01T13:53:05;98990.69;;;25.81;27.84
10176;BME280;18221;38.704;0.152;2023-04-01T13:56:06;98989.00;;;25.92;28.36
10176;BME280;18221;38.704;0.152;2023-04-01T13:59:15;98990.28;;;26.01;27.73
10176;BME280;18221;38.704;0.152;2023-04-01T14:02:01;98985.44;;;26.03;26.47
10176;BME280;18221;38.704;0.152;2023-04-01T14:04:59;98966.00;;;26.11;27.25
10176;BME280;18221;38.704;0.152;2023-04-01T14:07:49;98969.34;;;26.01;27.06
10176;BME280;18221;38.704;0.152;2023-04-01T14:10:35;98966.66;;;25.90;27.34
10176;BME280;18221;38.704;0.152;2023-04-01T14:13:18;98962.16;;;25.95;27.67
10176;BME280;18221;38.704;0.152;2023-04-01T14:16:07;98953.16;;;25.95;27.41
10176;BME280;18221;38.704;0.152;2023-04-01T14:21:42;98939.06;;;25.98;27.49
10176;BME280;18221;38.704;0.152;2023-04-01T14:24:42;98940.75;;;25.99;26.97
10176;BME280;18221;38.704;0.152;2023-04-01T14:27:50;98930.69;;;25.99;26.80
10176;BME280;18221;38.704;0.152;2023-04-01T14:30:45;98927.97;;;25.99;27.13
10176;BME280;18221;38.704;0.152;2023-04-01T14:33:36;98920.03;;;25.98;27.19
10176;BME280;18221;38.704;0.152;2023-04-01T14:36:41;98910.31;;;26.02;27.41
10176;BME280;18221;38.704;0.152;2023-04-01T14:39:47;98909.97;;;25.98;26.80
10176;BME280;18221;38.704;0.152;2023-04-01T14:43:03;98894.00;;;26.02;26.89
10176;BME280;18221;38.704;0.152;2023-04-01T14:45:55;98894.00;;;26.02;27.30
10176;BME280;18221;38.704;0.152;2023-04-01T14:48:34;98892.34;;;26.01;27.38
10176;BME280;18221;38.704;0.152;2023-04-01T14:51:16;98894.09;;;26.07;27.97
10176;BME280;18221;38.704;0.152;2023-04-01T14:54:00;98889.81;;;26.11;27.38
10176;BME280;18221;38.704;0.152;2023-04-01T14:56:40;98879.97;;;26.10;27.54
10176;BME280;18221;38.704;0.152;2023-04-01T14:59:14;98884.75;;;26.03;27.38
10176;BME280;18221;38.704;0.152;2023-04-01T15:01:57;98880.81;;;26.10;26.60
10176;BME280;18221;38.704;0.152;2023-04-01T15:04:50;98881.47;;;26.12;26.25
10176;BME280;18221;38.704;0.152;2023-04-01T15:11:11;98872.91;;;26.09;27.00
10176;BME280;18221;38.704;0.152;2023-04-01T15:14:09;98869.94;;;26.22;26.69
10176;BME280;18221;38.704;0.152;2023-04-01T15:16:49;98863.47;;;26.00;27.61
10176;BME280;18221;38.704;0.152;2023-04-01T15:19:39;98867.22;;;26.10;28.03
10176;BME280;18221;38.704;0.152;2023-04-01T15:22:46;98861.94;;;26.04;27.76
10176;BME280;18221;38.704;0.152;2023-04-01T15:25:41;98851.84;;;26.16;28.11
10176;BME280;18221;38.704;0.152;2023-04-01T15:28:28;98842.25;;;26.13;28.22